Time;durP1;ratioP1;P1;durP2;ratioP2;P2;SDS_P1;SDS_P2;PMS_P1;PMS_P2;Temp;Humidity;BMP_temperature;BMP_pressure;BME280_temperature;BME280_humidity;BME280_pressure;Samples;Min_cycle;Max_cycle;Signal;HPM_P1;HPM_P2
2023/05/17 00:08:22;;;;;;;14.95;9.10;;;15.80;99.90;;;;;;4894098;29;20045;-78
2023/05/17 00:10:48;;;;;;;13.73;9.23;;;15.90;99.90;;;;;;4897650;29;20047;-75
2023/05/17 00:13:14;;;;;;;16.10;8.88;;;15.90;99.90;;;;;;4898250;29;20044;-79
2023/05/17 00:15:40;;;;;;;16.77;8.73;;;15.90;99.90;;;;;;4897514;29;20065;-78
2023/05/17 00:18:06;;;;;;;16.63;9.88;;;15.90;99.90;;;;;;4896884;29;20037;-79
2023/05/17 00:20:31;;;;;;;18.70;9.65;;;15.90;99.90;;;;;;4897557;29;20417;-78
2023/05/17 00:22:57;;;;;;;17.98;9.85;;;15.80;99.90;;;;;;4897803;29;20025;-79
2023/05/17 00:25:23;;;;;;;14.98;8.48;;;15.80;99.90;;;;;;4897519;29;20029;-79
2023/05/17 00:27:49;;;;;;;11.25;7.50;;;15.80;99.90;;;;;;4897986;29;20108;-78
2023/05/17 00:30:15;;;;;;;15.13;8.25;;;15.80;99.90;;;;;;4897386;29;20029;-79
2023/05/17 00:32:41;;;;;;;19.70;9.88;;;15.80;99.90;;;;;;4897678;29;20491;-79
2023/05/17 00:35:07;;;;;;;14.25;8.90;;;15.90;99.90;;;;;;4897124;29;20068;-74
2023/05/17 00:37:32;;;;;;;15.40;8.85;;;15.90;99.90;;;;;;4880352;29;20025;-79
2023/05/17 00:39:58;;;;;;;18.75;8.52;;;15.90;99.90;;;;;;4896105;29;20060;-79
2023/05/17 00:42:24;;;;;;;15.10;7.60;;;15.90;99.90;;;;;;4880667;29;20465;-76
2023/05/17 00:44:50;;;;;;;15.95;7.38;;;15.80;99.90;;;;;;4880457;29;20032;-77
2023/05/17 00:47:16;;;;;;;17.58;9.65;;;15.90;99.90;;;;;;4880378;29;20449;-78
2023/05/17 00:49:42;;;;;;;14.27;7.32;;;15.90;99.90;;;;;;4880544;29;20028;-75
2023/05/17 00:52:08;;;;;;;14.07;9.13;;;15.90;99.90;;;;;;4879798;29;20068;-74
2023/05/17 00:54:34;;;;;;;13.55;7.78;;;16.00;99.90;;;;;;4897347;29;20052;-75
2023/05/17 00:57:02;;;;;;;15.82;8.32;;;16.00;99.90;;;;;;4895458;29;20070;-77
2023/05/17 00:59:29;;;;;;;13.45;9.30;;;16.10;99.90;;;;;;4897273;29;20025;-76
2023/05/17 01:01:55;;;;;;;13.30;8.30;;;16.10;99.90;;;;;;4896925;29;20033;-75
2023/05/17 01:04:21;;;;;;;13.73;8.50;;;16.00;99.90;;;;;;4895451;29;20395;-81
2023/05/17 01:06:47;;;;;;;18.25;8.73;;;16.00;99.90;;;;;;4897074;29;20157;-82
2023/05/17 01:09:13;;;;;;;12.63;9.07;;;16.00;99.90;;;;;;4895712;29;20041;-81
2023/05/17 01:11:55;;;;;;;15.30;8.90;;;16.00;99.90;;;;;;4897074;29;20025;-82
2023/05/17 01:14:38;;;;;;;15.65;9.20;;;16.00;99.90;;;;;;4896634;29;20095;-73
2023/05/17 01:17:43;;;;;;;14.75;8.65;;;16.00;99.90;;;;;;4880035;29;20053;-74
2023/05/17 01:20:11;;;;;;;17.63;9.63;;;16.00;99.90;;;;;;4877801;29;20076;-75
2023/05/17 01:22:49;;;;;;;21.88;9.65;;;16.00;99.90;;;;;;4897104;29;20029;-74
2023/05/17 01:26:03;;;;;;;16.52;9.32;;;16.10;99.90;;;;;;4896789;29;20484;-78
2023/05/17 01:28:31;;;;;;;14.13;9.25;;;16.10;99.90;;;;;;4896415;29;20052;-82
2023/05/17 01:31:00;;;;;;;16.92;8.73;;;16.10;99.90;;;;;;4879650;29;20036;-82
2023/05/17 01:33:26;;;;;;;14.73;7.53;;;16.10;99.90;;;;;;4892910;29;20028;-80
2023/05/17 01:35:52;;;;;;;16.70;7.53;;;16.10;99.90;;;;;;4888125;29;20094;-81
2023/05/17 01:38:19;;;;;;;16.48;9.80;;;16.10;99.90;;;;;;4900228;29;20059;-73
2023/05/17 01:41:04;;;;;;;18.92;8.07;;;16.00;99.90;;;;;;4889505;29;20100;-80
2023/05/17 01:43:54;;;;;;;14.75;7.53;;;16.00;99.90;;;;;;4893618;29;20124;-75
2023/05/17 01:46:37;;;;;;;17.02;6.65;;;15.90;99.90;;;;;;4896726;29;20127;-74
2023/05/17 01:49:21;;;;;;;;;;;15.90;99.90;;;;;;4886725;29;20409;-75
2023/05/17 01:52:14;;;;;;;10.45;5.82;;;15.90;99.90;;;;;;4888678;29;20081;-79
2023/05/17 01:54:52;;;;;;;12.40;7.23;;;15.80;99.90;;;;;;4896244;29;20036;-74
2023/05/17 01:57:21;;;;;;;10.98;5.88;;;15.70;99.90;;;;;;4897356;29;20036;-82
2023/05/17 01:59:48;;;;;;;10.93;4.70;;;15.50;99.90;;;;;;4872052;29;20045;-72
2023/05/17 02:02:14;;;;;;;13.98;5.10;;;15.50;99.90;;;;;;4878870;29;20077;-73
2023/05/17 02:04:40;;;;;;;9.30;4.40;;;15.50;99.90;;;;;;4899277;29;20464;-81
2023/05/17 02:07:06;;;;;;;11.93;4.38;;;15.50;99.90;;;;;;4904084;29;20130;-73
2023/05/17 02:09:32;;;;;;;9.35;3.88;;;15.50;99.90;;;;;;4901062;29;20051;-85
2023/05/17 02:11:58;;;;;;;11.48;4.53;;;15.50;99.90;;;;;;4902238;29;20035;-78
2023/05/17 02:14:24;;;;;;;11.98;3.47;;;15.40;99.90;;;;;;4881977;29;20025;-72
2023/05/17 02:16:50;;;;;;;9.30;3.30;;;15.20;99.90;;;;;;4882659;29;20072;-73
2023/05/17 02:19:15;;;;;;;7.90;3.10;;;15.20;99.90;;;;;;4898131;29;20024;-73
2023/05/17 02:21:41;;;;;;;16.45;4.13;;;15.20;99.90;;;;;;4896392;29;20031;-73
2023/05/17 02:24:07;;;;;;;9.98;2.83;;;15.20;99.90;;;;;;4879566;29;20094;-81
2023/05/17 02:26:33;;;;;;;9.32;3.60;;;15.20;99.90;;;;;;4879373;29;20035;-73
2023/05/17 02:28:59;;;;;;;8.93;3.17;;;15.20;99.90;;;;;;4896357;29;20432;-80
2023/05/17 02:31:25;;;;;;;6.63;2.95;;;15.20;99.90;;;;;;4896157;29;20039;-75
2023/05/17 02:33:54;;;;;;;9.88;3.35;;;15.20;99.90;;;;;;4896236;29;20027;-83
2023/05/17 02:36:22;;;;;;;12.27;3.25;;;15.20;99.90;;;;;;4894667;29;20571;-83
2023/05/17 02:38:47;;;;;;;10.30;2.78;;;15.20;99.90;;;;;;4896010;29;20056;-83
2023/05/17 02:41:13;;;;;;;9.50;2.88;;;15.10;99.90;;;;;;4897502;29;20392;-83
2023/05/17 02:43:39;;;;;;;7.38;3.10;;;15.10;99.90;;;;;;4897492;29;20101;-76
2023/05/17 02:46:05;;;;;;;6.30;3.05;;;15.10;99.90;;;;;;4899561;29;20092;-73
2023/05/17 02:48:31;;;;;;;8.85;2.83;;;15.10;99.90;;;;;;4911749;29;20028;-82
2023/05/17 02:50:57;;;;;;;10.68;2.92;;;15.10;99.90;;;;;;4882407;29;20032;-83
2023/05/17 02:53:23;;;;;;;7.00;2.38;;;15.10;99.90;;;;;;4899135;29;20052;-79
2023/05/17 02:55:49;;;;;;;8.95;3.67;;;15.10;99.90;;;;;;4898013;29;20045;-73
2023/05/17 02:58:15;;;;;;;8.63;3.00;;;15.10;99.90;;;;;;4897992;29;20099;-75
2023/05/17 03:00:45;;;;;;;10.80;3.85;;;15.10;99.90;;;;;;4899738;29;20472;-77
2023/05/17 03:03:11;;;;;;;10.15;3.90;;;15.20;99.90;;;;;;4900379;29;20507;-84
2023/05/17 03:05:37;;;;;;;10.43;3.42;;;15.20;99.90;;;;;;4897716;29;20029;-74
2023/05/17 03:08:03;;;;;;;8.45;3.78;;;15.20;99.90;;;;;;4897746;29;20121;-75
2023/05/17 03:10:29;;;;;;;10.27;3.67;;;15.30;99.90;;;;;;4882327;29;20111;-73
2023/05/17 03:12:55;;;;;;;12.25;3.53;;;15.30;99.90;;;;;;4897833;29;20552;-73
2023/05/17 03:15:28;;;;;;;8.13;3.45;;;15.20;99.90;;;;;;4887685;29;20139;-82
2023/05/17 03:17:55;;;;;;;11.52;3.42;;;15.30;99.90;;;;;;4882282;29;20021;-74
2023/05/17 03:20:22;;;;;;;8.38;3.28;;;15.30;99.90;;;;;;4891690;29;20507;-79
2023/05/17 03:22:48;;;;;;;8.38;2.85;;;15.30;99.90;;;;;;4900025;29;20111;-76
2023/05/17 03:25:14;;;;;;;7.90;3.50;;;15.30;99.90;;;;;;4898634;29;20033;-83
2023/05/17 03:27:40;;;;;;;13.82;6.13;;;15.20;99.90;;;;;;4887947;29;20425;-80
2023/05/17 03:30:07;;;;;;;11.80;4.97;;;15.20;99.90;;;;;;4897564;29;20056;-73
2023/05/17 03:32:34;;;;;;;12.00;4.65;;;15.20;99.90;;;;;;4881456;29;20033;-81
2023/05/17 03:35:00;;;;;;;18.00;5.70;;;15.20;99.90;;;;;;4894186;29;20473;-75
2023/05/17 03:37:27;;;;;;;11.93;4.97;;;15.30;99.90;;;;;;4891865;29;20377;-81
2023/05/17 03:39:52;;;;;;;12.07;5.22;;;15.30;99.90;;;;;;4900193;29;20044;-75
2023/05/17 03:42:19;;;;;;;11.65;4.82;;;15.30;99.90;;;;;;4897930;29;20028;-74
2023/05/17 03:44:46;;;;;;;11.35;5.07;;;15.30;99.90;;;;;;4881639;29;20025;-74
2023/05/17 03:47:13;;;;;;;15.65;8.05;;;15.30;99.90;;;;;;4896726;29;20040;-79
2023/05/17 03:49:39;;;;;;;17.15;9.32;;;15.40;99.90;;;;;;4896519;29;20040;-81
2023/05/17 03:52:05;;;;;;;15.10;6.55;;;15.40;99.90;;;;;;4896636;29;20396;-74
2023/05/17 03:54:31;;;;;;;10.30;5.15;;;15.40;99.90;;;;;;4895530;29;20136;-79
2023/05/17 03:56:57;;;;;;;10.18;4.50;;;15.40;99.90;;;;;;4888216;29;20040;-80
2023/05/17 03:59:23;;;;;;;10.20;4.18;;;15.50;99.90;;;;;;4895922;29;20457;-80
2023/05/17 04:01:49;;;;;;;15.02;4.85;;;15.50;99.90;;;;;;4891747;29;20092;-75
2023/05/17 04:04:15;;;;;;;11.82;4.90;;;15.50;99.90;;;;;;4897775;29;20020;-74
2023/05/17 04:06:41;;;;;;;13.27;4.22;;;15.50;99.90;;;;;;4896700;29;20382;-80
2023/05/17 04:09:09;;;;;;;11.60;4.57;;;15.60;99.90;;;;;;4884932;29;20040;-74
2023/05/17 04:11:36;;;;;;;10.98;4.03;;;15.60;99.90;;;;;;4881207;29;20033;-76
2023/05/17 04:14:04;;;;;;;16.00;5.63;;;15.70;99.90;;;;;;4880778;29;20532;-75
2023/05/17 04:16:30;;;;;;;13.98;5.18;;;15.80;99.90;;;;;;4897266;29;20396;-78
2023/05/17 04:18:58;;;;;;;11.98;4.53;;;16.60;99.90;;;;;;4897870;29;20024;-81
2023/05/17 04:21:26;;;;;;;9.98;3.40;;;17.40;99.90;;;;;;4896323;29;20185;-75
2023/05/17 04:23:52;;;;;;;6.90;3.30;;;18.50;99.90;;;;;;4880954;29;20081;-81
2023/05/17 04:26:19;;;;;;;11.40;3.63;;;18.50;99.90;;;;;;4897588;29;20052;-73
2023/05/17 04:28:45;;;;;;;10.98;3.95;;;19.00;99.90;;;;;;4896375;29;20028;-79
2023/05/17 04:31:15;;;;;;;7.60;3.22;;;20.10;99.90;;;;;;4880867;29;20025;-74
2023/05/17 04:33:41;;;;;;;5.03;2.53;;;21.30;99.90;;;;;;4897325;29;20107;-74
2023/05/17 04:36:07;;;;;;;8.65;3.20;;;20.70;99.90;;;;;;4880236;29;20140;-79
2023/05/17 04:38:34;;;;;;;9.00;2.63;;;21.60;99.90;;;;;;4895741;29;20051;-78
2023/05/17 04:41:03;;;;;;;6.03;2.70;;;21.90;99.90;;;;;;4896201;29;20031;-78
2023/05/17 04:43:33;;;;;;;10.52;3.25;;;21.50;99.90;;;;;;4895880;29;20064;-77
2023/05/17 04:46:00;;;;;;;10.02;3.22;;;22.10;99.90;;;;;;4895932;29;20064;-76
2023/05/17 04:48:31;;;;;;;5.28;2.65;;;23.30;99.90;;;;;;4895934;29;20108;-78
2023/05/17 04:51:05;;;;;;;7.70;3.03;;;24.30;99.90;;;;;;4895861;29;20529;-75
2023/05/17 04:53:31;;;;;;;7.35;2.28;;;24.50;98.80;;;;;;4896112;29;20215;-76
2023/05/17 04:56:00;;;;;;;8.77;2.72;;;25.20;98.20;;;;;;4895705;29;20056;-78
2023/05/17 04:58:26;;;;;;;8.38;3.20;;;24.80;97.40;;;;;;4895905;29;20036;-79
2023/05/17 05:00:56;;;;;;;9.15;2.97;;;23.80;98.20;;;;;;4898027;29;20042;-76
2023/05/17 05:03:22;;;;;;;13.38;2.88;;;23.30;99.90;;;;;;4889426;29;20060;-77
2023/05/17 05:05:49;;;;;;;8.30;3.00;;;23.00;99.90;;;;;;4879864;29;20024;-76
2023/05/17 05:08:15;;;;;;;13.20;4.05;;;22.80;99.90;;;;;;4895525;29;20059;-76
2023/05/17 05:10:44;;;;;;;11.80;3.15;;;22.60;99.90;;;;;;4895772;29;20079;-78
2023/05/17 05:13:11;;;;;;;13.20;3.53;;;22.30;99.90;;;;;;4895502;29;20515;-78
2023/05/17 05:15:39;;;;;;;11.23;3.40;;;22.10;99.90;;;;;;4895199;29;20060;-78
2023/05/17 05:18:05;;;;;;;7.35;2.95;;;21.80;99.90;;;;;;4895282;29;20062;-76
2023/05/17 05:20:31;;;;;;;7.43;2.60;;;21.70;99.90;;;;;;4880169;29;20032;-78
2023/05/17 05:22:59;;;;;;;6.93;2.80;;;21.40;99.90;;;;;;4898087;29;20506;-77
2023/05/17 05:25:26;;;;;;;8.52;3.25;;;21.40;99.90;;;;;;4887708;29;20555;-76
2023/05/17 05:27:53;;;;;;;10.82;3.10;;;21.10;99.90;;;;;;4895365;29;20076;-78
2023/05/17 05:30:21;;;;;;;11.10;2.97;;;21.00;99.90;;;;;;4892288;29;20057;-77
2023/05/17 05:32:49;;;;;;;11.13;2.70;;;20.90;99.90;;;;;;4886875;29;20037;-78
2023/05/17 05:35:16;;;;;;;6.20;2.83;;;20.90;99.90;;;;;;4895282;29;20415;-76
2023/05/17 05:37:43;;;;;;;4.72;2.15;;;21.00;99.90;;;;;;4895629;29;20032;-77
2023/05/17 05:40:10;;;;;;;8.15;2.50;;;21.20;99.90;;;;;;4892976;29;20136;-78
2023/05/17 05:42:37;;;;;;;10.57;2.63;;;21.30;99.90;;;;;;4885381;29;20029;-78
2023/05/17 05:45:04;;;;;;;8.68;2.75;;;21.50;99.90;;;;;;4894940;29;20044;-78
2023/05/17 05:47:30;;;;;;;8.90;2.13;;;21.80;99.90;;;;;;4879996;29;20504;-75
2023/05/17 05:49:56;;;;;;;7.45;2.33;;;21.90;99.90;;;;;;4896226;29;20073;-77
2023/05/17 05:52:22;;;;;;;6.50;2.78;;;22.10;99.90;;;;;;4896670;29;20024;-78
2023/05/17 05:54:49;;;;;;;8.85;2.33;;;22.20;99.90;;;;;;4879395;29;20037;-77
2023/05/17 05:57:15;;;;;;;5.30;2.60;;;22.40;99.90;;;;;;4896404;29;20048;-75
2023/05/17 05:59:41;;;;;;;5.20;2.22;;;22.60;99.90;;;;;;4895177;29;20503;-78
2023/05/17 06:02:07;;;;;;;9.30;2.47;;;22.70;99.90;;;;;;4895104;29;20036;-78
2023/05/17 06:04:33;;;;;;;8.93;1.45;;;22.80;99.90;;;;;;4896573;29;20445;-75
2023/05/17 06:06:58;;;;;;;4.68;1.40;;;22.80;99.90;;;;;;4895875;29;20050;-77
2023/05/17 06:09:24;;;;;;;7.90;2.42;;;22.30;99.90;;;;;;4896464;29;20055;-76
2023/05/17 06:11:52;;;;;;;6.00;2.03;;;21.80;99.90;;;;;;4896805;29;20075;-75
2023/05/17 06:14:18;;;;;;;8.35;2.05;;;21.60;99.90;;;;;;4881552;29;20047;-78
2023/05/17 06:16:44;;;;;;;5.82;2.05;;;21.30;99.90;;;;;;4906437;29;20088;-78
2023/05/17 06:19:10;;;;;;;8.40;2.22;;;21.30;99.90;;;;;;4905870;29;20024;-79
2023/05/17 06:21:35;;;;;;;5.07;1.92;;;21.50;99.90;;;;;;4883158;29;20044;-74
2023/05/17 06:24:01;;;;;;;10.90;2.28;;;21.60;99.90;;;;;;4899555;29;20333;-79
2023/05/17 06:26:27;;;;;;;7.13;1.50;;;22.00;99.90;;;;;;4899967;29;20095;-78
2023/05/17 06:28:53;;;;;;;7.47;2.42;;;21.90;99.90;;;;;;4899596;29;20414;-75
2023/05/17 06:31:19;;;;;;;3.17;1.27;;;21.80;99.90;;;;;;4899832;29;20041;-75
2023/05/17 06:33:44;;;;;;;7.72;2.28;;;21.90;99.90;;;;;;4899410;29;20049;-74
2023/05/17 06:36:10;;;;;;;7.15;2.22;;;22.10;99.90;;;;;;4899889;29;20115;-76
2023/05/17 06:38:36;;;;;;;4.75;2.50;;;22.20;99.90;;;;;;4899441;29;20441;-75
2023/05/17 06:41:02;;;;;;;5.18;1.50;;;22.50;99.90;;;;;;4899635;29;20047;-78
2023/05/17 06:43:27;;;;;;;6.13;2.15;;;22.50;99.90;;;;;;4899211;29;20028;-78
2023/05/17 06:45:53;;;;;;;11.43;2.30;;;22.30;99.70;;;;;;4899619;29;20056;-78
2023/05/17 06:48:19;;;;;;;8.65;1.98;;;22.50;99.90;;;;;;4899285;29;20096;-76
2023/05/17 06:50:45;;;;;;;6.38;2.35;;;22.60;99.90;;;;;;4898294;29;20040;-79
2023/05/17 06:53:11;;;;;;;10.85;2.70;;;22.80;99.90;;;;;;4899526;29;20096;-78
2023/05/17 06:55:37;;;;;;;7.15;1.95;;;22.80;99.90;;;;;;4899297;29;20040;-78
2023/05/17 06:58:03;;;;;;;11.18;2.33;;;21.90;99.90;;;;;;4899146;29;20017;-78
2023/05/17 07:00:28;;;;;;;6.10;2.13;;;21.50;99.90;;;;;;4899149;29;20028;-76
2023/05/17 07:02:54;;;;;;;6.90;2.20;;;21.60;99.90;;;;;;4899193;29;20025;-78
2023/05/17 07:05:22;;;;;;;4.18;1.70;;;21.60;99.90;;;;;;4899071;29;20463;-76
2023/05/17 07:07:48;;;;;;;5.13;1.77;;;22.00;99.90;;;;;;4898956;29;20076;-77
2023/05/17 07:10:14;;;;;;;4.18;1.55;;;22.40;99.90;;;;;;4898845;29;20540;-75
2023/05/17 07:12:40;;;;;;;6.55;2.17;;;22.70;99.90;;;;;;4899223;29;20493;-76
2023/05/17 07:15:07;;;;;;;6.55;1.52;;;22.30;99.90;;;;;;4898650;29;20088;-78
2023/05/17 07:17:32;;;;;;;3.60;1.80;;;21.90;99.90;;;;;;4898732;29;20107;-78
2023/05/17 07:19:58;;;;;;;8.18;1.83;;;22.00;99.90;;;;;;4897709;29;20536;-79
2023/05/17 07:22:24;;;;;;;10.82;2.45;;;22.10;99.90;;;;;;4898778;29;20059;-79
2023/05/17 07:24:50;;;;;;;8.43;1.90;;;22.10;99.90;;;;;;4898970;29;20064;-78
2023/05/17 07:27:16;;;;;;;6.10;1.85;;;22.20;99.90;;;;;;4897901;29;20111;-75
2023/05/17 07:33:32;;;;;;;6.53;1.77;;;22.00;99.90;;;;;;5210937;23;20051;-75
2023/05/17 07:35:58;;;;;;;5.35;1.92;;;22.00;99.90;;;;;;4938205;29;20447;-78
2023/05/17 07:38:23;;;;;;;7.50;1.90;;;22.20;99.90;;;;;;4947064;29;20023;-80
2023/05/17 07:40:49;;;;;;;6.50;2.15;;;22.20;99.90;;;;;;4932285;29;20542;-77
2023/05/17 07:43:15;;;;;;;8.70;2.22;;;22.20;99.90;;;;;;4954925;29;20031;-78
2023/05/17 07:45:43;;;;;;;3.63;1.73;;;22.20;99.90;;;;;;4955063;29;20497;-76
2023/05/17 07:48:08;;;;;;;3.13;1.55;;;22.20;98.90;;;;;;4954724;29;20023;-78
2023/05/17 07:50:34;;;;;;;11.88;1.90;;;22.00;98.70;;;;;;4955263;29;20466;-76
2023/05/17 07:53:00;;;;;;;2.88;1.23;;;22.30;99.90;;;;;;4955120;29;20525;-80
2023/05/17 07:55:26;;;;;;;5.97;1.58;;;22.60;99.30;;;;;;4954536;29;20036;-78
2023/05/17 07:57:52;;;;;;;6.32;1.20;;;22.70;99.90;;;;;;4955102;29;20133;-76
2023/05/17 08:00:18;;;;;;;7.32;2.00;;;23.00;99.90;;;;;;4954892;29;20035;-78
2023/05/17 08:02:45;;;;;;;4.00;1.15;;;22.90;97.80;;;;;;4954851;29;20031;-75
2023/05/17 08:05:11;;;;;;;6.18;1.95;;;23.00;99.90;;;;;;4954364;29;20031;-76
2023/05/17 08:07:36;;;;;;;8.07;1.95;;;23.00;99.90;;;;;;4954019;29;20023;-75
2023/05/17 08:10:02;;;;;;;7.93;2.03;;;22.80;98.70;;;;;;4954215;29;20031;-78
2023/05/17 08:12:28;;;;;;;4.43;1.33;;;22.50;98.80;;;;;;4953095;29;20395;-79
2023/05/17 08:14:54;;;;;;;4.50;1.85;;;21.90;99.90;;;;;;4954545;29;20026;-74
2023/05/17 08:17:21;;;;;;;4.88;1.50;;;21.90;99.90;;;;;;4953262;29;20491;-78
2023/05/17 08:19:46;;;;;;;8.23;1.77;;;22.30;99.90;;;;;;4954108;29;20062;-79
2023/05/17 08:22:12;;;;;;;5.15;1.63;;;21.90;98.10;;;;;;4949887;29;20111;-74
2023/05/17 08:24:38;;;;;;;2.80;1.20;;;22.00;97.90;;;;;;4945794;29;20030;-77
2023/05/17 08:27:04;;;;;;;6.82;1.90;;;22.00;99.90;;;;;;4943633;29;20023;-75
2023/05/17 08:29:30;;;;;;;4.65;1.83;;;22.10;99.70;;;;;;4948316;29;20445;-75
2023/05/17 08:31:56;;;;;;;6.68;2.05;;;22.10;99.90;;;;;;4948425;29;20102;-75
2023/05/17 08:34:22;;;;;;;4.82;1.35;;;22.50;99.90;;;;;;4942177;29;20055;-80
2023/05/17 08:36:48;;;;;;;7.07;1.90;;;22.40;98.10;;;;;;4938748;29;20505;-75
2023/05/17 08:39:14;;;;;;;7.70;1.90;;;22.30;99.90;;;;;;4933750;29;20030;-78
2023/05/17 08:41:40;;;;;;;2.28;1.42;;;22.00;98.70;;;;;;4938501;29;20016;-75
2023/05/17 08:44:07;;;;;;;5.03;1.55;;;22.30;99.90;;;;;;4935890;29;20023;-78
2023/05/17 08:46:35;;;;;;;5.15;1.55;;;22.40;99.90;;;;;;4933833;29;20031;-75
2023/05/17 08:49:04;;;;;;;9.23;2.22;;;22.20;99.50;;;;;;4942225;29;20035;-77
2023/05/17 08:51:31;;;;;;;10.20;2.10;;;22.00;99.40;;;;;;4941924;29;20423;-76
2023/05/17 08:53:57;;;;;;;7.53;1.95;;;22.20;99.90;;;;;;4933726;29;20023;-74
2023/05/17 08:56:27;;;;;;;4.70;1.83;;;22.10;99.90;;;;;;4934739;29;20527;-75
2023/05/17 08:58:57;;;;;;;5.50;1.50;;;22.10;99.90;;;;;;4935788;29;20032;-79
2023/05/17 09:01:24;;;;;;;5.18;1.75;;;22.30;99.90;;;;;;4944899;29;20031;-75
2023/05/17 09:03:49;;;;;;;3.53;1.40;;;22.30;99.90;;;;;;4952387;29;20035;-79
2023/05/17 09:06:19;;;;;;;3.17;1.27;;;22.10;99.90;;;;;;4948792;29;20135;-74
2023/05/17 09:08:45;;;;;;;6.97;1.48;;;21.80;98.00;;;;;;4953759;29;20027;-78
2023/05/17 09:11:11;;;;;;;1.70;1.02;;;21.90;99.30;;;;;;4944023;29;20400;-76
2023/05/17 09:13:37;;;;;;;6.75;1.65;;;22.00;98.20;;;;;;4935158;29;20085;-78
2023/05/17 09:16:12;;;;;;;2.95;1.20;;;22.30;99.90;;;;;;4933489;29;20110;-79
2023/05/17 09:18:37;;;;;;;4.20;1.38;;;22.20;97.10;;;;;;4920241;29;20495;-77
2023/05/17 09:21:03;;;;;;;3.88;1.02;;;22.70;99.60;;;;;;4933349;29;20050;-74
2023/05/17 09:23:34;;;;;;;5.40;1.83;;;22.70;97.80;;;;;;4937701;29;20027;-74
2023/05/17 09:26:06;;;;;;;2.90;1.23;;;21.90;97.70;;;;;;4933446;29;20111;-75
2023/05/17 09:28:41;;;;;;;6.38;1.33;;;22.30;98.10;;;;;;4933663;29;20032;-73
2023/05/17 09:31:07;;;;;;;2.72;1.25;;;22.20;99.10;;;;;;4932117;29;20035;-75
2023/05/17 09:33:34;;;;;;;4.15;1.10;;;22.40;98.20;;;;;;4953436;29;20050;-75
2023/05/17 09:36:01;;;;;;;6.38;1.15;;;22.20;97.50;;;;;;4953814;29;20085;-77
2023/05/17 09:38:27;;;;;;;5.95;1.80;;;22.00;98.90;;;;;;4953556;29;20015;-74
2023/05/17 09:40:53;;;;;;;5.70;1.40;;;22.40;98.00;;;;;;4953760;29;20027;-75
2023/05/17 09:43:25;;;;;;;3.90;1.42;;;22.20;98.70;;;;;;4953337;29;20035;-74
2023/05/17 09:45:55;;;;;;;;;;;22.40;98.20;;;;;;4954032;29;20198;-75
2023/05/17 09:48:21;;;;;;;4.43;1.00;;;22.10;96.20;;;;;;4953309;29;19946;-75
2023/05/17 09:50:49;;;;;;;7.15;1.33;;;22.60;97.70;;;;;;4955896;28;20063;-73
2023/05/17 09:53:32;;;;;;;6.05;1.70;;;22.60;99.00;;;;;;4957313;29;20031;-74
2023/05/17 09:56:01;;;;;;;3.92;1.00;;;22.60;99.20;;;;;;4957220;29;20039;-77
2023/05/17 09:58:30;;;;;;;6.78;1.67;;;22.80;98.10;;;;;;4957177;29;20342;-77
2023/05/17 10:01:07;;;;;;;5.00;1.20;;;22.70;96.50;;;;;;4957160;29;20027;-78
2023/05/17 10:03:35;;;;;;;3.45;1.17;;;22.70;99.90;;;;;;4944298;29;20529;-77
2023/05/17 10:06:05;;;;;;;4.82;1.25;;;22.70;99.10;;;;;;4957213;29;20531;-78
2023/05/17 10:08:32;;;;;;;5.82;1.42;;;22.60;99.30;;;;;;4957609;29;20538;-77
2023/05/17 10:11:04;;;;;;;8.30;1.52;;;22.70;99.90;;;;;;4956998;29;20038;-79
2023/05/17 10:13:33;;;;;;;;;;;22.90;99.90;;;;;;4957403;29;20032;-77
2023/05/17 10:16:01;;;;;;;3.88;1.50;;;22.70;99.10;;;;;;4939680;29;20429;-77
2023/05/17 10:18:29;;;;;;;4.28;1.10;;;22.80;99.90;;;;;;4957091;29;20035;-77
2023/05/17 10:20:55;;;;;;;7.50;1.90;;;22.70;99.40;;;;;;4956845;29;20020;-78
2023/05/17 10:23:22;;;;;;;7.68;1.10;;;22.70;99.30;;;;;;4957279;29;20035;-80
2023/05/17 10:25:48;;;;;;;2.35;1.15;;;22.90;99.90;;;;;;4956861;29;20356;-76
2023/05/17 10:28:16;;;;;;;8.52;1.63;;;22.90;99.90;;;;;;4956557;29;20058;-79
2023/05/17 10:30:42;;;;;;;10.60;1.20;;;23.10;99.90;;;;;;4957107;29;20420;-79
2023/05/17 10:33:11;;;;;;;3.20;1.10;;;23.10;99.90;;;;;;4956303;28;20046;-79
2023/05/17 10:35:39;;;;;;;3.00;1.00;;;23.20;98.80;;;;;;4956845;29;20054;-76
2023/05/17 10:38:05;;;;;;;2.15;1.00;;;23.10;99.20;;;;;;4956591;29;20031;-76
2023/05/17 10:40:31;;;;;;;3.10;1.20;;;23.30;98.80;;;;;;4956586;29;20035;-77
2023/05/17 10:42:58;;;;;;;3.90;1.08;;;23.00;99.00;;;;;;4956603;29;20027;-78
2023/05/17 10:45:25;;;;;;;7.35;1.35;;;22.80;99.10;;;;;;4956721;29;20020;-77
2023/05/17 10:47:52;;;;;;;5.53;1.33;;;23.00;99.90;;;;;;4956642;29;20027;-75
2023/05/17 10:50:26;;;;;;;3.80;1.38;;;23.30;99.00;;;;;;4956080;29;20034;-77
2023/05/17 10:52:55;;;;;;;6.25;1.50;;;22.90;99.10;;;;;;4956497;29;20039;-75
2023/05/17 10:55:23;;;;;;;3.65;1.75;;;23.00;98.60;;;;;;4956305;29;20039;-74
2023/05/17 10:58:19;;;;;;;3.03;1.40;;;23.00;99.30;;;;;;4956053;29;20575;-74
2023/05/17 11:00:53;;;;;;;4.35;1.25;;;23.00;98.70;;;;;;4938657;28;20483;-76
2023/05/17 11:03:28;;;;;;;4.32;1.55;;;23.00;98.10;;;;;;4942678;29;20419;-76
2023/05/17 11:06:11;;;;;;;1.92;1.15;;;22.50;98.40;;;;;;4956329;29;20390;-74
2023/05/17 11:08:42;;;;;;;;;;;22.50;98.80;;;;;;4956676;29;20118;-77
2023/05/17 11:11:11;;;;;;;3.83;1.48;;;22.60;98.20;;;;;;4955912;29;20009;-78
2023/05/17 11:13:45;;;;;;;5.65;1.63;;;22.90;98.10;;;;;;4939176;29;20164;-74
2023/05/17 11:16:15;;;;;;;5.55;1.60;;;23.00;97.70;;;;;;4955844;29;20483;-78
2023/05/17 11:18:52;;;;;;;3.58;1.38;;;23.00;97.80;;;;;;4922568;29;20074;-76
2023/05/17 11:21:20;;;;;;;3.50;1.73;;;22.90;97.90;;;;;;4943824;29;20023;-76
2023/05/17 11:23:48;;;;;;;3.30;1.63;;;23.10;98.60;;;;;;4938508;29;20038;-78
2023/05/17 11:26:28;;;;;;;4.88;1.30;;;23.30;97.30;;;;;;4955854;29;20027;-74
2023/05/17 11:29:01;;;;;;;4.57;1.40;;;23.10;96.80;;;;;;4948832;29;20027;-76
2023/05/17 11:31:35;;;;;;;4.45;1.60;;;23.30;96.70;;;;;;4955357;29;20026;-74
2023/05/17 11:34:04;;;;;;;5.32;1.67;;;23.30;98.70;;;;;;4954099;28;20119;-76
2023/05/17 11:36:31;;;;;;;3.97;1.10;;;23.30;98.10;;;;;;4955187;29;20118;-80
2023/05/17 11:39:10;;;;;;;3.63;1.38;;;23.30;96.90;;;;;;4955624;29;20029;-76
2023/05/17 11:41:40;;;;;;;2.58;1.30;;;23.40;97.10;;;;;;4955528;29;20406;-79
2023/05/17 11:44:10;;;;;;;2.78;0.90;;;23.40;96.80;;;;;;4955895;29;20103;-76
2023/05/17 11:46:37;;;;;;;3.97;1.00;;;23.50;96.40;;;;;;4925453;29;20495;-76
2023/05/17 11:49:06;;;;;;;3.80;1.38;;;23.50;96.70;;;;;;4947974;29;20027;-82
2023/05/17 11:51:32;;;;;;;5.78;1.23;;;23.30;96.10;;;;;;4949068;29;20043;-77
2023/05/17 11:54:02;;;;;;;3.63;1.98;;;23.30;96.40;;;;;;4943820;29;20035;-75
2023/05/17 11:56:33;;;;;;;6.07;2.97;;;23.30;96.30;;;;;;4954953;29;20039;-78
2023/05/17 11:59:00;;;;;;;3.92;1.10;;;23.30;97.10;;;;;;4955355;29;20035;-77
2023/05/17 12:01:26;;;;;;;5.45;1.10;;;23.40;98.40;;;;;;4937774;29;20530;-78
2023/05/17 12:03:58;;;;;;;8.35;1.67;;;23.40;98.00;;;;;;4955529;29;20045;-79
2023/05/17 12:06:24;;;;;;;1.45;0.95;;;23.60;96.80;;;;;;4954979;29;20093;-76
2023/05/17 12:08:50;;;;;;;2.17;0.85;;;23.50;96.30;;;;;;4955140;29;20498;-75
2023/05/17 12:11:17;;;;;;;1.83;0.90;;;23.80;98.20;;;;;;4937674;29;20027;-74
2023/05/17 12:13:45;;;;;;;5.13;1.33;;;23.60;94.60;;;;;;4954849;28;20026;-75
2023/05/17 12:16:15;;;;;;;5.47;1.10;;;23.80;95.40;;;;;;4954980;29;20043;-78
2023/05/17 12:18:44;;;;;;;2.28;1.13;;;23.70;97.50;;;;;;4954707;29;20485;-75
2023/05/17 12:21:14;;;;;;;6.45;1.20;;;23.50;96.30;;;;;;4954780;29;20051;-77
2023/05/17 12:23:42;;;;;;;3.50;1.08;;;23.60;97.40;;;;;;4955002;29;20035;-75
2023/05/17 12:26:11;;;;;;;3.85;1.30;;;23.40;96.70;;;;;;4947870;28;20078;-75
2023/05/17 12:28:39;;;;;;;3.63;1.00;;;23.40;99.10;;;;;;4935615;29;20083;-78
2023/05/17 12:31:09;;;;;;;3.95;1.48;;;23.50;96.70;;;;;;4954233;29;20027;-74
2023/05/17 12:33:40;;;;;;;2.55;1.20;;;23.60;97.10;;;;;;4936531;29;20058;-76
2023/05/17 12:36:08;;;;;;;2.08;1.00;;;23.60;97.30;;;;;;4954534;29;20047;-76
2023/05/17 12:38:36;;;;;;;2.22;0.82;;;23.50;97.00;;;;;;4954420;29;20166;-80
2023/05/17 12:41:07;;;;;;;3.17;0.85;;;23.40;95.70;;;;;;4954626;29;20459;-79
2023/05/17 12:43:35;;;;;;;3.15;1.25;;;23.70;96.20;;;;;;4954501;29;20395;-74
2023/05/17 12:46:04;;;;;;;1.38;0.90;;;23.80;95.10;;;;;;4954595;29;20072;-77
2023/05/17 12:48:36;;;;;;;5.93;1.58;;;23.90;96.00;;;;;;4954140;29;20023;-80
2023/05/17 12:51:08;;;;;;;4.38;1.42;;;23.90;98.70;;;;;;4953491;29;20023;-77
2023/05/17 12:53:39;;;;;;;9.05;2.22;;;24.10;99.70;;;;;;4950705;29;20019;-74
2023/05/17 12:56:05;;;;;;;5.82;1.10;;;24.30;99.70;;;;;;4944875;29;20047;-75
2023/05/17 12:58:31;;;;;;;3.13;1.15;;;24.10;99.50;;;;;;4948762;29;20464;-74
2023/05/17 13:01:02;;;;;;;1.67;1.10;;;23.90;98.50;;;;;;4952028;29;20085;-81